createdAt,value
2022-08-30T00:02:03.527Z,94563.56
2022-08-30T00:04:30.168Z,94569.56
2022-08-30T00:06:57.225Z,94573.41
2022-08-30T00:09:24.238Z,94570.94
2022-08-30T00:11:52.125Z,94573.91
2022-08-30T00:14:20.371Z,94580.94
2022-08-30T00:16:47.309Z,94581.09
2022-08-30T00:19:13.969Z,94586.28
2022-08-30T00:21:40.751Z,94586.91
2022-08-30T00:24:08.136Z,94583.50
2022-08-30T00:26:34.820Z,94580.72
2022-08-30T00:29:01.452Z,94580.31
2022-08-30T00:31:28.268Z,94590.91
2022-08-30T00:33:54.890Z,94584.00
2022-08-30T00:36:21.497Z,94586.19
2022-08-30T00:38:48.069Z,94587.41
2022-08-30T00:41:14.720Z,94585.84
2022-08-30T00:43:41.450Z,94584.44
2022-08-30T00:46:10.276Z,94583.34
2022-08-30T00:48:44.828Z,94585.22
2022-08-30T00:51:14.240Z,94584.44
2022-08-30T00:53:46.406Z,94591.13
2022-08-30T00:56:13.994Z,94580.25
2022-08-30T00:58:45.535Z,94574.88
2022-08-30T01:01:12.619Z,94578.88
2022-08-30T01:03:39.571Z,94582.38
2022-08-30T01:06:07.618Z,94582.81
2022-08-30T01:08:35.370Z,94576.91
2022-08-30T01:11:03.782Z,94575.84
2022-08-30T01:13:31.689Z,94575.84
2022-08-30T01:16:00.083Z,94572.75
2022-08-30T01:18:27.488Z,94564.16
2022-08-30T01:21:03.712Z,94569.72
2022-08-30T01:23:32.355Z,94573.31
2022-08-30T01:26:00.382Z,94570.53
2022-08-30T01:28:29.841Z,94574.94
2022-08-30T01:30:56.721Z,94575.13
2022-08-30T01:33:23.988Z,94577.94
2022-08-30T01:36:06.379Z,94581.50
2022-08-30T01:38:42.231Z,94580.47
2022-08-30T01:41:19.784Z,94577.13
2022-08-30T01:43:47.485Z,94566.53
2022-08-30T01:46:16.590Z,94573.53
2022-08-30T01:48:50.233Z,94581.59
2022-08-30T01:51:23.153Z,94577.59
2022-08-30T01:53:50.084Z,94580.84
2022-08-30T01:56:16.764Z,94578.22
2022-08-30T01:58:44.784Z,94579.78
2022-08-30T02:01:15.148Z,94572.97
2022-08-30T02:03:44.338Z,94569.91
2022-08-30T02:06:14.165Z,94562.00
2022-08-30T02:08:42.093Z,94569.13
2022-08-30T02:11:09.513Z,94570.50
2022-08-30T02:13:37.691Z,94571.25
2022-08-30T02:16:06.621Z,94568.63
2022-08-30T02:18:35.009Z,94578.22
2022-08-30T02:21:02.813Z,94562.00
2022-08-30T02:23:29.486Z,94574.22
2022-08-30T02:25:56.577Z,94566.97
2022-08-30T02:28:23.505Z,94573.31
2022-08-30T02:30:52.814Z,94560.47
2022-08-30T02:33:19.756Z,94571.75
2022-08-30T02:35:46.594Z,94564.03
2022-08-30T02:38:14.012Z,94573.63
2022-08-30T02:40:40.679Z,94563.41
2022-08-30T02:43:07.396Z,94564.03
2022-08-30T02:45:34.054Z,94564.38
2022-08-30T02:48:00.686Z,94557.25
2022-08-30T02:50:27.422Z,94569.28
2022-08-30T02:52:54.435Z,94554.16
2022-08-30T02:55:22.590Z,94554.16
2022-08-30T02:57:49.167Z,94554.91
2022-08-30T03:00:18.938Z,94559.41
2022-08-30T03:02:46.518Z,94550.00
2022-08-30T03:05:15.432Z,94559.09
2022-08-30T03:07:43.109Z,94552.63
2022-08-30T03:10:10.933Z,94559.41
2022-08-30T03:12:38.255Z,94557.09
2022-08-30T03:15:06.566Z,94569.03
2022-08-30T03:17:33.361Z,94562.22
2022-08-30T03:20:02.244Z,94561.34
2022-08-30T03:22:29.546Z,94559.31
2022-08-30T03:24:59.552Z,94563.97
2022-08-30T03:27:28.100Z,94566.25
2022-08-30T03:29:55.296Z,94564.59
2022-08-30T03:32:22.391Z,94561.19
2022-08-30T03:34:49.078Z,94560.28
2022-08-30T03:37:16.132Z,94559.69
2022-08-30T03:39:43.020Z,94558.47
2022-08-30T03:42:11.308Z,94557.38
2022-08-30T03:44:38.112Z,94552.00
2022-08-30T03:47:05.422Z,94547.34
2022-08-30T03:49:32.086Z,94547.19
2022-08-30T03:51:58.758Z,94559.88
2022-08-30T03:54:25.544Z,94560.94
2022-08-30T03:56:52.249Z,94557.41
2022-08-30T03:59:18.889Z,94551.69
2022-08-30T04:01:46.008Z,94557.41
2022-08-30T04:04:15.361Z,94551.06
2022-08-30T04:06:44.039Z,94551.66
2022-08-30T04:09:10.774Z,94546.72
2022-08-30T04:11:38.002Z,94552.13
2022-08-30T04:14:04.677Z,94549.97
2022-08-30T04:16:31.325Z,94549.34
2022-08-30T04:18:58.012Z,94556.56
2022-08-30T04:21:24.639Z,94551.31
2022-08-30T04:23:51.209Z,94561.84
2022-08-30T04:26:17.860Z,94554.91
2022-08-30T04:28:44.474Z,94555.06
2022-08-30T04:31:15.133Z,94547.47
2022-08-30T04:33:42.058Z,94552.72
2022-08-30T04:36:10.919Z,94548.41
2022-08-30T04:38:37.935Z,94556.75
2022-08-30T04:41:15.544Z,94559.84
2022-08-30T04:43:45.503Z,94565.56
2022-08-30T04:46:14.054Z,94563.56
2022-08-30T04:48:40.942Z,94570.38
2022-08-30T04:51:09.994Z,94569.44
2022-08-30T04:53:37.750Z,94572.22
2022-08-30T04:56:10.012Z,94574.41
2022-08-30T04:58:36.870Z,94574.25
2022-08-30T05:01:04.677Z,94576.41
2022-08-30T05:03:31.434Z,94579.03
2022-08-30T05:05:58.372Z,94589.06
2022-08-30T05:08:25.131Z,94588.28
2022-08-30T05:10:52.861Z,94581.31
2022-08-30T05:13:25.945Z,94590.28
2022-08-30T05:16:02.937Z,94594.91
2022-08-30T05:18:29.660Z,94597.06
2022-08-30T05:21:14.003Z,94590.88
2022-08-30T05:23:41.542Z,94595.66
2022-08-30T05:26:18.691Z,94596.72
2022-08-30T05:28:45.848Z,94604.41
2022-08-30T05:31:25.227Z,94600.84
2022-08-30T05:33:53.987Z,94598.69
2022-08-30T05:36:25.055Z,94600.03
2022-08-30T05:38:51.796Z,94595.13
2022-08-30T05:41:20.575Z,94595.38
2022-08-30T05:43:48.588Z,94596.13
2022-08-30T05:46:19.939Z,94603.97
2022-08-30T05:48:47.787Z,94600.09
2022-08-30T05:51:25.579Z,94607.47
2022-08-30T05:53:53.884Z,94612.09
2022-08-30T05:56:24.722Z,94617.78
2022-08-30T05:58:52.620Z,94614.03
2022-08-30T06:01:23.566Z,94616.91
2022-08-30T06:03:50.793Z,94617.63
2022-08-30T06:06:17.522Z,94614.94
2022-08-30T06:08:46.197Z,94616.59
2022-08-30T06:11:19.586Z,94623.31
2022-08-30T06:13:47.488Z,94618.47
2022-08-30T06:16:16.033Z,94608.75
2022-08-30T06:18:42.889Z,94606.59
2022-08-30T06:21:16.696Z,94613.59
2022-08-30T06:23:44.668Z,94619.00
2022-08-30T06:26:11.553Z,94607.88
2022-08-30T06:28:38.600Z,94608.78
2022-08-30T06:31:13.343Z,94610.44
2022-08-30T06:33:40.526Z,94595.81
2022-08-30T06:36:10.806Z,94600.41
2022-08-30T06:38:38.657Z,94598.44
2022-08-30T06:41:10.278Z,94601.63
2022-08-30T06:43:37.482Z,94604.47
2022-08-30T06:46:05.992Z,94599.00
2022-08-30T06:48:33.043Z,94593.03
2022-08-30T06:50:59.672Z,94596.97
2022-08-30T06:53:29.635Z,94601.75
2022-08-30T06:56:00.796Z,94599.88
2022-08-30T06:58:29.550Z,94604.16
2022-08-30T07:00:56.405Z,94603.81
2022-08-30T07:03:23.439Z,94613.16
2022-08-30T07:05:50.289Z,94620.59
2022-08-30T07:08:18.001Z,94616.16
2022-08-30T07:10:45.390Z,94617.56
2022-08-30T07:13:12.824Z,94614.34
2022-08-30T07:15:42.777Z,94606.25
2022-08-30T07:18:29.238Z,94606.97
2022-08-30T07:20:56.635Z,94605.66
2022-08-30T07:23:23.947Z,94603.88
2022-08-30T07:25:50.649Z,94595.78
2022-08-30T07:28:17.396Z,94594.06
2022-08-30T07:30:44.326Z,94605.38
2022-08-30T07:33:10.965Z,94609.78
2022-08-30T07:35:37.721Z,94604.84
2022-08-30T07:38:04.316Z,94606.31
2022-08-30T07:40:31.008Z,94611.19
2022-08-30T07:42:58.923Z,94612.91
2022-08-30T07:45:25.538Z,94609.72
2022-08-30T07:47:52.286Z,94611.47
2022-08-30T07:50:18.923Z,94611.78
2022-08-30T07:52:45.491Z,94617.72
2022-08-30T07:55:12.095Z,94611.03
2022-08-30T07:57:38.706Z,94616.84
2022-08-30T08:00:06.473Z,94619.22
2022-08-30T08:02:40.715Z,94613.31
2022-08-30T08:05:08.437Z,94616.47
2022-08-30T08:07:35.634Z,94625.66
2022-08-30T08:10:02.891Z,94621.69
2022-08-30T08:12:30.008Z,94624.63
2022-08-30T08:14:56.657Z,94622.06
2022-08-30T08:17:23.255Z,94623.69
2022-08-30T08:19:49.916Z,94627.94
2022-08-30T08:22:21.385Z,94624.63
2022-08-30T08:24:49.361Z,94630.84
2022-08-30T08:27:16.682Z,94633.31
2022-08-30T08:29:43.558Z,94634.59
2022-08-30T08:32:10.169Z,94631.72
2022-08-30T08:34:37.038Z,94629.22
2022-08-30T08:37:03.774Z,94628.16
2022-08-30T08:39:30.424Z,94632.75
2022-08-30T08:42:04.042Z,94629.41
2022-08-30T08:44:44.681Z,94622.25
2022-08-30T08:47:20.082Z,94628.75
2022-08-30T08:49:51.502Z,94627.28
2022-08-30T08:52:48.308Z,94633.16
2022-08-30T08:55:20.960Z,94631.72
2022-08-30T08:57:48.240Z,94631.78
2022-08-30T09:00:15.347Z,94635.00
2022-08-30T09:02:45.716Z,94632.06
2022-08-30T09:05:20.742Z,94638.66
2022-08-30T09:07:57.105Z,94632.31
2022-08-30T09:10:47.187Z,94633.53
2022-08-30T09:13:13.740Z,94626.41
2022-08-30T09:15:40.925Z,94616.41
2022-08-30T09:18:19.141Z,94621.44
2022-08-30T09:20:49.430Z,94621.47
2022-08-30T09:23:16.025Z,94620.41
2022-08-30T09:25:52.681Z,94624.69
2022-08-30T09:28:26.369Z,94616.72
2022-08-30T09:31:17.305Z,94623.78
2022-08-30T09:34:03.682Z,94627.63
2022-08-30T09:37:00.858Z,94614.38
2022-08-30T09:39:35.438Z,94606.53
2022-08-30T09:42:26.222Z,94606.22
2022-08-30T09:45:10.236Z,94604.41
2022-08-30T09:47:41.151Z,94598.81
2022-08-30T09:50:09.874Z,94604.28
2022-08-30T09:53:00.833Z,94594.84
2022-08-30T09:55:36.885Z,94594.50
2022-08-30T09:58:09.707Z,94597.25
2022-08-30T10:00:45.893Z,94595.44
2022-08-30T10:03:36.248Z,94592.09
2022-08-30T10:06:21.951Z,94597.94
2022-08-30T10:09:04.749Z,94587.69
2022-08-30T10:12:01.728Z,94583.16
2022-08-30T10:14:46.861Z,94583.97
2022-08-30T10:17:31.320Z,94574.06
2022-08-30T10:20:12.390Z,94576.41
2022-08-30T10:23:06.270Z,94575.69
2022-08-30T10:25:41.802Z,94572.28
2022-08-30T10:28:11.580Z,94573.06
2022-08-30T10:30:42.468Z,94573.50
2022-08-30T10:33:15.182Z,94562.81
2022-08-30T10:35:48.323Z,94562.09
2022-08-30T10:38:23.712Z,94553.69
2022-08-30T10:41:13.709Z,94552.94
2022-08-30T10:44:05.914Z,94553.72
2022-08-30T10:46:39.754Z,94556.75
2022-08-30T10:49:14.230Z,94552.94
2022-08-30T10:51:52.885Z,94550.72
2022-08-30T10:54:29.007Z,94542.31
2022-08-30T10:56:56.334Z,94543.06
2022-08-30T10:59:23.197Z,94543.81
2022-08-30T11:02:28.815Z,94544.56
2022-08-30T11:05:08.088Z,94546.84
2022-08-30T11:07:46.680Z,94540.34
2022-08-30T11:10:32.271Z,94546.00
2022-08-30T11:13:08.748Z,94547.88
2022-08-30T11:15:52.167Z,94546.34
2022-08-30T11:18:20.299Z,94546.69
2022-08-30T11:20:53.255Z,94551.25
2022-08-30T11:23:32.850Z,94551.97
2022-08-30T11:26:08.679Z,94559.50
2022-08-30T11:29:01.061Z,94552.16
2022-08-30T11:31:35.420Z,94557.88
2022-08-30T11:34:02.758Z,94552.50
2022-08-30T11:36:37.491Z,94560.53
2022-08-30T11:39:07.496Z,94552.44
2022-08-30T11:41:46.147Z,94556.19
2022-08-30T11:44:34.980Z,94555.66
2022-08-30T11:47:22.929Z,94548.97
2022-08-30T11:50:09.905Z,94555.78
2022-08-30T11:52:41.624Z,94548.75
2022-08-30T11:55:16.831Z,94548.00
2022-08-30T11:57:53.822Z,94542.72
2022-08-30T12:00:31.304Z,94540.38
2022-08-30T12:03:04.372Z,94544.91
2022-08-30T12:05:41.063Z,94542.59
2022-08-30T12:08:28.483Z,94540.31
2022-08-30T12:11:05.272Z,94547.19
2022-08-30T12:13:34.694Z,94540.53
2022-08-30T12:16:09.424Z,94537.91
2022-08-30T12:18:39.214Z,94535.66
2022-08-30T12:21:15.696Z,94533.34
2022-08-30T12:23:54.467Z,94531.00
2022-08-30T12:26:25.141Z,94530.56
2022-08-30T12:29:05.075Z,94532.38
2022-08-30T12:31:32.338Z,94525.81
2022-08-30T12:34:03.158Z,94522.88
2022-08-30T12:36:49.067Z,94527.25
2022-08-30T12:39:19.216Z,94525.44
2022-08-30T12:41:46.034Z,94523.22
2022-08-30T12:44:25.350Z,94523.28
2022-08-30T12:46:59.885Z,94528.19
2022-08-30T12:49:30.293Z,94519.69
2022-08-30T12:52:20.511Z,94527.34
2022-08-30T12:54:47.756Z,94519.31
2022-08-30T12:57:32.086Z,94517.34
2022-08-30T13:00:02.331Z,94521.06
2022-08-30T13:02:46.135Z,94514.94
2022-08-30T13:05:45.049Z,94514.13
2022-08-30T13:08:36.669Z,94504.97
2022-08-30T13:11:10.994Z,94503.47
2022-08-30T13:13:37.721Z,94506.09
2022-08-30T13:16:12.643Z,94503.66
2022-08-30T13:18:39.658Z,94491.75
2022-08-30T13:21:20.130Z,94497.06
2022-08-30T13:23:48.517Z,94483.56
2022-08-30T13:26:23.171Z,94486.00
2022-08-30T13:28:58.759Z,94482.94
2022-08-30T13:31:27.295Z,94482.72
2022-08-30T13:33:55.227Z,94482.13
2022-08-30T13:36:24.947Z,94475.31
2022-08-30T13:38:52.265Z,94462.53
2022-08-30T13:41:20.795Z,94469.31
2022-08-30T13:46:35.892Z,94466.06
2022-08-30T13:49:06.268Z,94462.03
2022-08-30T13:51:33.467Z,94459.94
2022-08-30T13:54:02.538Z,94457.75
2022-08-30T13:56:32.106Z,94443.97
2022-08-30T13:59:00.346Z,94441.75
2022-08-30T14:01:30.176Z,94439.41
2022-08-30T14:04:16.750Z,94444.94
2022-08-30T14:09:31.287Z,94440.03
2022-08-30T14:11:58.218Z,94441.56
2022-08-30T14:14:41.880Z,94440.97
2022-08-30T14:17:09.565Z,94430.41
2022-08-30T14:19:36.468Z,94430.22
2022-08-30T14:22:03.254Z,94434.63
2022-08-30T14:24:29.845Z,94419.06
2022-08-30T14:26:56.532Z,94423.47
2022-08-30T14:29:26.188Z,94413.44
2022-08-30T14:31:53.445Z,94416.91
2022-08-30T14:34:21.374Z,94415.31
2022-08-30T14:36:47.963Z,94418.28
2022-08-30T14:39:18.031Z,94415.41
2022-08-30T14:41:51.504Z,94412.88
2022-08-30T14:44:19.854Z,94408.56
2022-08-30T14:46:47.103Z,94406.91
2022-08-30T14:49:14.882Z,94403.44
2022-08-30T14:51:42.818Z,94406.66
2022-08-30T14:54:10.087Z,94399.13
2022-08-30T14:56:37.635Z,94398.25
2022-08-30T14:59:04.417Z,94396.53
2022-08-30T15:01:31.984Z,94399.50
2022-08-30T15:04:04.027Z,94393.00
2022-08-30T15:06:36.462Z,94401.66
2022-08-30T15:09:04.900Z,94395.84
2022-08-30T15:11:31.496Z,94401.13
2022-08-30T15:14:00.327Z,94393.72
2022-08-30T15:16:31.534Z,94396.25
2022-08-30T15:18:59.418Z,94393.66
2022-08-30T15:21:31.105Z,94395.53
2022-08-30T15:24:01.782Z,94385.50
2022-08-30T15:26:28.768Z,94390.06
2022-08-30T15:28:55.930Z,94390.81
2022-08-30T15:31:28.517Z,94385.31
2022-08-30T15:33:55.759Z,94383.06
2022-08-30T15:36:24.184Z,94381.56
2022-08-30T15:38:55.388Z,94383.91
2022-08-30T15:41:22.820Z,94378.63
2022-08-30T15:43:49.884Z,94378.97
2022-08-30T15:46:22.691Z,94368.84
2022-08-30T15:48:52.129Z,94370.97
2022-08-30T15:51:19.592Z,94369.56
2022-08-30T15:53:46.477Z,94366.19
2022-08-30T15:56:13.861Z,94363.22
2022-08-30T15:58:40.913Z,94373.69
2022-08-30T16:01:09.069Z,94369.22
2022-08-30T16:03:37.852Z,94371.22
2022-08-30T16:06:04.751Z,94366.75
2022-08-30T16:08:31.458Z,94363.72
2022-08-30T16:10:58.138Z,94374.44
2022-08-30T16:13:24.708Z,94367.94
2022-08-30T16:15:51.381Z,94370.28
2022-08-30T16:18:18.083Z,94369.16
2022-08-30T16:20:44.724Z,94367.97
2022-08-30T16:23:12.064Z,94372.25
2022-08-30T16:25:40.772Z,94372.38
2022-08-30T16:28:09.384Z,94358.69
2022-08-30T16:30:36.465Z,94359.09
2022-08-30T16:33:03.072Z,94361.06
2022-08-30T16:35:29.700Z,94364.97
2022-08-30T16:37:56.302Z,94359.28
2022-08-30T16:40:22.946Z,94360.47
2022-08-30T16:42:50.702Z,94360.09
2022-08-30T16:45:17.992Z,94363.53
2022-08-30T16:47:45.994Z,94363.56
2022-08-30T16:50:13.252Z,94361.31
2022-08-30T16:52:43.992Z,94355.59
2022-08-30T16:55:10.926Z,94356.78
2022-08-30T16:57:38.621Z,94353.72
2022-08-30T17:00:08.244Z,94354.47
2022-08-30T17:02:40.395Z,94353.69
2022-08-30T17:05:12.409Z,94347.59
2022-08-30T17:07:39.910Z,94351.41
2022-08-30T17:10:06.999Z,94341.09
2022-08-30T17:12:35.683Z,94350.25
2022-08-30T17:15:05.518Z,94347.59
2022-08-30T17:17:32.780Z,94347.53
2022-08-30T17:19:59.393Z,94355.91
2022-08-30T17:22:26.275Z,94354.34
2022-08-30T17:24:53.125Z,94360.81
2022-08-30T17:27:19.930Z,94363.47
2022-08-30T17:29:48.069Z,94367.66
2022-08-30T17:32:14.821Z,94362.66
2022-08-30T17:34:41.499Z,94377.50
2022-08-30T17:37:08.364Z,94383.94
2022-08-30T17:39:34.986Z,94382.41
2022-08-30T17:42:03.104Z,94380.06
2022-08-30T17:44:32.859Z,94388.41
2022-08-30T17:47:00.590Z,94383.38
2022-08-30T17:49:29.416Z,94380.72
2022-08-30T17:51:57.281Z,94384.88
2022-08-30T17:54:29.412Z,94383.69
2022-08-30T17:56:56.984Z,94386.69
2022-08-30T17:59:25.708Z,94395.34
2022-08-30T18:01:53.693Z,94402.47
2022-08-30T18:04:21.456Z,94402.41
2022-08-30T18:06:51.910Z,94406.50
2022-08-30T18:09:18.869Z,94404.53
2022-08-30T18:11:45.595Z,94407.09
2022-08-30T18:14:15.436Z,94407.06
2022-08-30T18:16:49.989Z,94412.72
2022-08-30T18:19:30.367Z,94399.75
2022-08-30T18:21:57.022Z,94407.25
2022-08-30T18:24:24.946Z,94407.16
2022-08-30T18:26:51.732Z,94404.03
2022-08-30T18:29:26.367Z,94401.59
2022-08-30T18:31:59.543Z,94410.72
2022-08-30T18:34:26.470Z,94412.94
2022-08-30T18:36:53.811Z,94417.47
2022-08-30T18:39:21.957Z,94418.19
2022-08-30T18:44:27.718Z,94417.31
2022-08-30T18:46:56.615Z,94425.59
2022-08-30T18:49:24.176Z,94424.00
2022-08-30T18:51:50.807Z,94427.03
2022-08-30T18:54:17.396Z,94434.97
2022-08-30T18:56:45.887Z,94434.94
2022-08-30T18:59:12.887Z,94436.00
2022-08-30T19:01:40.514Z,94438.97
2022-08-30T19:04:07.774Z,94442.72
2022-08-30T19:06:34.804Z,94446.06
2022-08-30T19:09:09.020Z,94439.53
2022-08-30T19:11:36.397Z,94437.19
2022-08-30T19:14:05.413Z,94434.38
2022-08-30T19:16:34.467Z,94444.97
2022-08-30T19:19:03.149Z,94439.91
2022-08-30T19:21:30.092Z,94448.66
2022-08-30T19:23:58.351Z,94440.22
2022-08-30T19:26:27.433Z,94446.25
2022-08-30T19:28:54.325Z,94450.38
2022-08-30T19:31:20.958Z,94448.78
2022-08-30T19:33:47.630Z,94441.88
2022-08-30T19:36:14.358Z,94457.09
2022-08-30T19:38:44.315Z,94452.50
2022-08-30T19:41:12.488Z,94452.44
2022-08-30T19:43:40.256Z,94444.00
2022-08-30T19:46:08.079Z,94455.28
2022-08-30T19:48:39.041Z,94455.94
2022-08-30T19:51:14.397Z,94452.09
2022-08-30T19:53:42.124Z,94447.09
2022-08-30T19:56:08.784Z,94454.16
2022-08-30T19:58:35.518Z,94447.59
2022-08-30T20:03:49.470Z,94441.66
2022-08-30T20:06:19.215Z,94452.28
2022-08-30T20:08:47.237Z,94451.84
2022-08-30T20:11:19.976Z,94452.16
2022-08-30T20:13:47.947Z,94449.44
2022-08-30T20:16:15.509Z,94442.53
2022-08-30T20:18:43.349Z,94442.38
2022-08-30T20:21:13.456Z,94447.97
2022-08-30T20:23:42.042Z,94440.31
2022-08-30T20:26:11.195Z,94441.84
2022-08-30T20:28:38.877Z,94449.44
2022-08-30T20:31:06.832Z,94446.47
2022-08-30T20:33:38.932Z,94453.28
2022-08-30T20:36:07.799Z,94452.88
2022-08-30T20:38:34.462Z,94449.81
2022-08-30T20:41:02.735Z,94451.69
2022-08-30T20:43:30.669Z,94448.25
2022-08-30T20:45:57.590Z,94446.75
2022-08-30T20:48:27.056Z,94444.09
2022-08-30T20:50:53.642Z,94436.47
2022-08-30T20:53:20.331Z,94443.38
2022-08-30T20:55:47.722Z,94439.63
2022-08-30T20:58:14.447Z,94443.38
2022-08-30T21:00:45.878Z,94448.34
2022-08-30T21:03:25.873Z,94449.84
2022-08-30T21:05:55.485Z,94444.91
2022-08-30T21:08:22.201Z,94446.09
2022-08-30T21:10:48.886Z,94443.03
2022-08-30T21:13:15.748Z,94450.22
2022-08-30T21:15:46.095Z,94446.03
2022-08-30T21:18:13.956Z,94444.50
2022-08-30T21:20:41.026Z,94447.09
2022-08-30T21:23:07.837Z,94430.69
2022-08-30T21:25:38.265Z,94441.69
2022-08-30T21:28:04.862Z,94445.50
2022-08-30T21:30:31.586Z,94443.94
2022-08-30T21:32:59.966Z,94438.25
2022-08-30T21:35:46.185Z,94439.34
2022-08-30T21:38:12.913Z,94436.28
2022-08-30T21:40:39.810Z,94437.66
2022-08-30T21:43:07.546Z,94433.91
2022-08-30T21:45:42.215Z,94436.19
2022-08-30T21:48:10.365Z,94436.56
2022-08-30T21:50:42.731Z,94438.78
2022-08-30T21:53:10.030Z,94434.19
2022-08-30T21:55:36.764Z,94430.78
2022-08-30T21:58:03.733Z,94429.94
2022-08-30T22:00:31.809Z,94431.06
2022-08-30T22:02:58.490Z,94430.63
2022-08-30T22:05:25.194Z,94437.06
2022-08-30T22:07:51.784Z,94435.84
2022-08-30T22:10:19.684Z,94429.69
2022-08-30T22:12:46.624Z,94431.50
2022-08-30T22:15:14.288Z,94437.13
2022-08-30T22:17:41.219Z,94431.84
2022-08-30T22:20:08.575Z,94435.53
2022-08-30T22:22:35.247Z,94431.75
2022-08-30T22:25:01.851Z,94439.28
2022-08-30T22:27:31.265Z,94436.22
2022-08-30T22:29:58.148Z,94438.47
2022-08-30T22:32:24.760Z,94449.06
2022-08-30T22:34:51.588Z,94445.63
2022-08-30T22:37:18.371Z,94439.22
2022-08-30T22:39:45.013Z,94448.28
2022-08-30T22:42:11.663Z,94449.75
2022-08-30T22:44:38.358Z,94457.25
2022-08-30T22:47:05.155Z,94455.31
2022-08-30T22:49:31.916Z,94450.34
2022-08-30T22:51:58.514Z,94451.03
2022-08-30T22:54:25.094Z,94446.78
2022-08-30T22:56:51.666Z,94456.97
2022-08-30T22:59:18.262Z,94454.22
2022-08-30T23:01:45.435Z,94451.06
2022-08-30T23:04:12.875Z,94460.47
2022-08-30T23:06:40.594Z,94458.94
2022-08-30T23:09:07.742Z,94458.50
2022-08-30T23:11:36.597Z,94460.75
2022-08-30T23:14:05.146Z,94451.63
2022-08-30T23:16:32.899Z,94456.47
2022-08-30T23:18:59.739Z,94453.81
2022-08-30T23:21:28.454Z,94459.03
2022-08-30T23:24:15.188Z,94459.38
2022-08-30T23:27:03.002Z,94459.63
2022-08-30T23:29:48.662Z,94457.34
2022-08-30T23:32:33.968Z,94450.78
2022-08-30T23:35:19.232Z,94451.03
2022-08-30T23:38:05.059Z,94452.78
2022-08-30T23:40:50.223Z,94451.25
2022-08-30T23:43:35.447Z,94442.13
2022-08-30T23:46:20.660Z,94449.63
2022-08-30T23:49:07.436Z,94449.63
2022-08-30T23:51:53.134Z,94443.16
2022-08-30T23:54:38.262Z,94441.19
2022-08-30T23:57:24.168Z,94427.44
